Time;durP1;ratioP1;P1;durP2;ratioP2;P2;SDS_P1;SDS_P2;PMS_P1;PMS_P2;Temp;Humidity;BMP_temperature;BMP_pressure;BME280_temperature;BME280_humidity;BME280_pressure;Samples;Min_cycle;Max_cycle;Signal;HPM_P1;HPM_P2
2022/06/11 00:01:13;;;;;;;6.47;5.23;;;16.80;99.90;;;;;;5015181;28;20222;-75
2022/06/11 00:03:40;;;;;;;7.17;5.10;;;16.80;99.90;;;;;;4997793;28;20199;-77
2022/06/11 00:06:07;;;;;;;8.10;5.37;;;16.90;99.90;;;;;;4997557;28;20200;-74
2022/06/11 00:08:34;;;;;;;7.67;5.03;;;16.90;99.90;;;;;;4997518;28;20566;-75
2022/06/11 00:11:02;;;;;;;7.87;5.30;;;16.90;99.90;;;;;;5013770;28;20204;-74
2022/06/11 00:13:29;;;;;;;8.10;5.10;;;16.90;99.90;;;;;;4997554;28;20693;-76
2022/06/11 00:15:56;;;;;;;6.50;5.23;;;16.90;99.90;;;;;;5014485;28;20712;-74
2022/06/11 00:18:24;;;;;;;5.80;5.20;;;16.90;99.90;;;;;;4997541;28;20238;-76
2022/06/11 00:20:52;;;;;;;6.57;5.10;;;16.90;99.90;;;;;;5014886;28;20199;-74
2022/06/11 00:23:19;;;;;;;7.37;5.33;;;16.90;99.90;;;;;;4997514;28;20214;-74
2022/06/11 00:25:47;;;;;;;6.67;5.47;;;16.90;99.90;;;;;;4997060;28;20235;-76
2022/06/11 00:28:14;;;;;;;9.17;5.43;;;16.90;99.90;;;;;;4997202;28;20210;-75
2022/06/11 00:30:41;;;;;;;8.67;5.23;;;16.80;99.90;;;;;;4996877;28;20210;-75
2022/06/11 00:33:08;;;;;;;7.40;5.90;;;16.90;99.90;;;;;;4997053;28;20238;-74
2022/06/11 00:35:38;;;;;;;7.20;4.70;;;16.90;99.90;;;;;;4996793;28;20212;-74
2022/06/11 00:38:06;;;;;;;7.07;5.00;;;16.90;99.90;;;;;;4996732;28;20232;-74
2022/06/11 00:40:36;;;;;;;8.40;5.83;;;16.80;99.90;;;;;;4996848;28;20295;-77
2022/06/11 00:43:04;;;;;;;6.03;5.20;;;16.80;99.90;;;;;;4996715;28;20310;-76
2022/06/11 00:45:45;;;;;;;5.70;5.10;;;16.80;99.90;;;;;;4996650;28;20192;-78
2022/06/11 00:48:22;;;;;;;5.60;4.87;;;16.80;99.90;;;;;;4996861;28;20248;-75
2022/06/11 00:50:56;;;;;;;6.50;5.40;;;16.90;99.90;;;;;;4997108;28;20223;-77
2022/06/11 00:53:58;;;;;;;7.17;5.20;;;16.90;99.90;;;;;;5012991;28;20223;-76
2022/06/11 00:56:47;;;;;;;5.63;4.67;;;16.80;99.90;;;;;;5012957;28;20295;-76
2022/06/11 00:59:24;;;;;;;6.43;5.17;;;16.70;99.90;;;;;;4996707;28;20657;-75
2022/06/11 01:01:53;;;;;;;6.37;4.83;;;16.80;99.90;;;;;;5014235;28;20215;-77
2022/06/11 01:04:39;;;;;;;6.43;5.13;;;16.80;99.90;;;;;;5012635;28;20279;-77
2022/06/11 01:07:30;;;;;;;7.97;4.60;;;16.70;99.90;;;;;;4996255;28;20193;-75
2022/06/11 01:10:18;;;;;;;5.70;4.57;;;16.50;99.90;;;;;;4996508;28;20716;-78
2022/06/11 01:13:07;;;;;;;6.83;5.00;;;16.50;99.90;;;;;;5012543;28;20303;-76
2022/06/11 01:15:40;;;;;;;5.27;4.60;;;16.40;99.90;;;;;;4996237;28;20547;-77
2022/06/11 01:18:29;;;;;;;5.23;4.27;;;16.40;99.90;;;;;;4996158;28;20298;-76
2022/06/11 01:21:07;;;;;;;7.17;4.73;;;16.40;99.90;;;;;;5014205;28;20202;-76
2022/06/11 01:24:20;;;;;;;5.70;4.63;;;16.40;99.90;;;;;;5012837;28;20211;-75
2022/06/11 01:26:53;;;;;;;7.03;4.50;;;16.30;99.90;;;;;;5012486;28;20238;-75
2022/06/11 01:29:47;;;;;;;5.63;4.40;;;16.20;99.90;;;;;;5013753;28;20195;-76
2022/06/11 01:32:23;;;;;;;7.50;4.97;;;16.20;99.90;;;;;;4995942;28;20227;-77
2022/06/11 01:35:01;;;;;;;7.07;5.10;;;16.10;99.90;;;;;;4995744;28;20224;-76
2022/06/11 01:37:35;;;;;;;6.70;5.00;;;15.90;99.90;;;;;;5012271;28;20196;-76
2022/06/11 01:40:11;;;;;;;6.20;4.90;;;16.00;99.90;;;;;;4996005;28;20184;-77
2022/06/11 01:42:46;;;;;;;6.60;4.93;;;15.90;99.90;;;;;;4996165;28;20234;-74
2022/06/11 01:45:18;;;;;;;5.73;4.93;;;15.80;99.90;;;;;;5011482;28;20203;-74
2022/06/11 01:47:47;;;;;;;7.47;5.00;;;15.80;99.90;;;;;;5013336;28;20695;-76
2022/06/11 01:50:18;;;;;;;7.13;5.07;;;15.80;99.90;;;;;;5012559;28;20184;-74
2022/06/11 01:53:17;;;;;;;5.87;4.80;;;15.80;99.90;;;;;;5013163;28;20215;-75
2022/06/11 01:55:50;;;;;;;8.43;4.93;;;15.70;99.90;;;;;;4955954;28;20659;-75
2022/06/11 01:58:28;;;;;;;7.63;5.10;;;15.60;99.90;;;;;;4972301;28;20233;-75
2022/06/11 02:01:13;;;;;;;6.07;4.90;;;15.60;99.90;;;;;;4972023;28;20614;-74
2022/06/11 02:04:04;;;;;;;7.07;4.80;;;15.40;99.90;;;;;;4972132;28;20205;-77
2022/06/11 02:06:37;;;;;;;6.13;4.57;;;15.50;99.90;;;;;;4971988;28;20205;-77
2022/06/11 02:09:42;;;;;;;8.63;5.10;;;15.40;99.90;;;;;;4972264;28;20210;-75
2022/06/11 02:12:16;;;;;;;6.47;4.80;;;15.30;99.90;;;;;;4917745;29;20265;-75
2022/06/11 02:15:18;;;;;;;6.40;5.23;;;15.30;99.90;;;;;;4917748;29;20222;-76
2022/06/11 02:17:50;;;;;;;8.27;5.00;;;15.20;99.90;;;;;;4895675;29;20212;-75
2022/06/11 02:20:22;;;;;;;6.67;5.00;;;15.20;99.90;;;;;;4880469;29;20211;-75
2022/06/11 02:23:17;;;;;;;6.47;5.00;;;15.20;99.90;;;;;;4880413;29;20594;-74
2022/06/11 02:25:50;;;;;;;7.20;4.90;;;15.10;99.90;;;;;;4878655;29;20231;-74
2022/06/11 02:28:22;;;;;;;8.67;5.37;;;15.10;99.90;;;;;;4879805;29;20208;-75
2022/06/11 02:30:52;;;;;;;8.43;5.77;;;15.10;99.90;;;;;;4880078;29;20660;-73
2022/06/11 02:33:21;;;;;;;7.20;5.23;;;15.10;99.90;;;;;;4879767;29;20328;-74
2022/06/11 02:36:02;;;;;;;7.30;4.93;;;15.10;99.90;;;;;;4879625;29;20216;-74
2022/06/11 02:38:29;;;;;;;5.33;4.60;;;15.10;99.90;;;;;;4880221;29;20745;-75
2022/06/11 02:41:04;;;;;;;6.03;4.50;;;15.10;99.90;;;;;;4895423;29;20208;-74
2022/06/11 02:43:32;;;;;;;6.87;4.77;;;15.00;99.90;;;;;;4895547;29;20328;-74
2022/06/11 02:46:40;;;;;;;6.97;4.60;;;15.00;99.90;;;;;;4895455;29;20217;-75
2022/06/11 02:48:48;;;;;;;5.53;4.73;;;15.00;99.90;;;;;;4931335;29;20612;-75
2022/06/11 02:51:15;;;;;;;7.50;4.57;;;15.00;99.90;;;;;;4933445;29;20237;-75
2022/06/11 02:53:41;;;;;;;5.20;4.50;;;15.10;99.90;;;;;;4983725;28;20250;-75
2022/06/11 02:56:08;;;;;;;6.07;4.30;;;15.00;99.90;;;;;;4996515;28;20634;-75
2022/06/11 02:58:35;;;;;;;7.30;5.17;;;15.00;99.90;;;;;;5016332;28;20192;-75
2022/06/11 03:01:02;;;;;;;5.47;4.63;;;15.00;99.90;;;;;;4999001;28;20301;-74
2022/06/11 03:03:29;;;;;;;6.43;4.80;;;15.00;99.90;;;;;;4998577;28;20282;-74
2022/06/11 03:05:58;;;;;;;6.23;4.60;;;15.00;99.90;;;;;;4998520;28;20648;-76
2022/06/11 03:08:25;;;;;;;6.23;4.33;;;15.10;99.90;;;;;;4998574;28;20291;-77
2022/06/11 03:10:54;;;;;;;7.43;4.60;;;15.10;99.90;;;;;;4998759;28;20672;-76
2022/06/11 03:13:23;;;;;;;6.13;4.40;;;15.10;99.90;;;;;;4998580;28;20212;-75
2022/06/11 03:15:50;;;;;;;6.07;4.50;;;15.10;99.90;;;;;;4998442;28;20653;-75
2022/06/11 03:18:18;;;;;;;5.17;4.50;;;15.10;99.90;;;;;;5016215;28;20291;-76
2022/06/11 03:20:45;;;;;;;5.53;4.10;;;15.10;99.90;;;;;;4998362;28;20227;-75
2022/06/11 03:23:12;;;;;;;8.53;4.73;;;15.10;99.90;;;;;;5014398;28;20196;-75
2022/06/11 03:25:39;;;;;;;5.60;4.20;;;15.10;99.90;;;;;;5014566;28;20243;-75
2022/06/11 03:28:08;;;;;;;5.90;4.60;;;15.10;99.90;;;;;;5014848;28;20650;-75
2022/06/11 03:30:36;;;;;;;5.17;4.27;;;15.20;99.90;;;;;;5014652;28;20647;-75
2022/06/11 03:33:03;;;;;;;5.67;3.93;;;15.20;99.90;;;;;;5014535;28;20296;-75
2022/06/11 03:35:31;;;;;;;4.97;3.93;;;15.30;99.90;;;;;;4997712;28;20255;-75
2022/06/11 03:37:58;;;;;;;4.83;4.00;;;15.30;99.90;;;;;;5016084;28;20254;-75
2022/06/11 03:40:26;;;;;;;5.33;4.10;;;15.30;99.90;;;;;;5015680;28;20196;-75
2022/06/11 03:42:53;;;;;;;6.80;3.63;;;15.40;99.90;;;;;;5014162;28;20639;-75
2022/06/11 03:45:21;;;;;;;4.40;3.63;;;15.40;99.90;;;;;;5014010;28;20200;-73
2022/06/11 03:47:48;;;;;;;5.07;3.77;;;15.40;99.90;;;;;;5014212;28;20204;-74
2022/06/11 03:50:22;;;;;;;5.47;3.70;;;15.50;99.90;;;;;;5014037;28;20287;-75
2022/06/11 03:52:50;;;;;;;4.37;3.70;;;15.60;99.90;;;;;;4997840;28;20207;-75
2022/06/11 03:55:18;;;;;;;4.93;3.67;;;15.50;99.90;;;;;;5013918;28;20228;-76
2022/06/11 03:57:45;;;;;;;5.73;3.67;;;15.60;99.90;;;;;;5014034;28;20639;-75
2022/06/11 04:00:15;;;;;;;4.73;3.70;;;15.60;99.90;;;;;;5014182;28;20234;-77
2022/06/11 04:02:42;;;;;;;3.67;3.10;;;15.70;99.90;;;;;;5013875;28;20288;-76
2022/06/11 04:05:09;;;;;;;5.10;3.10;;;15.80;99.90;;;;;;4981335;28;20200;-77
2022/06/11 04:07:36;;;;;;;4.90;3.20;;;15.80;99.90;;;;;;5013192;28;20379;-76
2022/06/11 04:10:04;;;;;;;5.07;3.00;;;15.80;99.90;;;;;;5013898;28;20193;-76
2022/06/11 04:12:31;;;;;;;3.23;2.93;;;15.90;99.90;;;;;;5015079;28;20203;-74
2022/06/11 04:14:58;;;;;;;4.77;2.80;;;15.90;99.90;;;;;;5014749;28;20295;-76
2022/06/11 04:17:31;;;;;;;4.20;2.70;;;15.90;99.90;;;;;;5013663;28;20200;-76
2022/06/11 04:19:58;;;;;;;3.77;2.67;;;16.10;99.90;;;;;;5014158;28;20363;-75
2022/06/11 04:22:25;;;;;;;3.90;2.73;;;16.10;99.90;;;;;;5013675;28;20200;-76
2022/06/11 04:24:52;;;;;;;3.50;2.53;;;16.10;99.90;;;;;;5013551;28;20631;-75
2022/06/11 04:27:20;;;;;;;3.43;2.60;;;16.20;99.90;;;;;;4997071;28;20207;-74
2022/06/11 04:29:54;;;;;;;3.53;2.50;;;16.20;99.90;;;;;;5014827;28;20194;-75
2022/06/11 04:32:23;;;;;;;4.00;2.60;;;16.20;99.90;;;;;;4996891;28;20291;-76
2022/06/11 04:34:51;;;;;;;3.07;2.30;;;16.30;99.90;;;;;;4997160;28;20241;-75
2022/06/11 04:37:21;;;;;;;2.80;2.30;;;16.30;99.90;;;;;;5014481;28;20202;-74
2022/06/11 04:39:51;;;;;;;3.30;2.50;;;16.40;99.90;;;;;;5013241;28;20246;-75
2022/06/11 04:42:20;;;;;;;3.70;2.53;;;16.40;99.90;;;;;;5009801;28;20239;-75
2022/06/11 04:44:47;;;;;;;3.57;2.57;;;16.50;99.90;;;;;;4993547;28;20204;-75
2022/06/11 04:47:18;;;;;;;5.53;2.50;;;16.50;99.90;;;;;;5009963;28;20212;-75
2022/06/11 04:49:46;;;;;;;2.40;2.00;;;16.60;99.90;;;;;;5010029;28;20208;-76
2022/06/11 04:52:13;;;;;;;3.20;1.80;;;16.60;99.90;;;;;;5009890;28;20211;-76
2022/06/11 04:54:41;;;;;;;3.27;2.30;;;16.60;99.90;;;;;;4993293;28;20250;-75
2022/06/11 04:57:09;;;;;;;2.33;1.90;;;16.60;99.90;;;;;;5009800;28;20201;-75
2022/06/11 04:59:36;;;;;;;2.13;1.87;;;16.80;99.90;;;;;;4994578;28;20240;-75
2022/06/11 05:02:03;;;;;;;2.17;1.77;;;16.90;99.90;;;;;;5009774;28;20228;-76
2022/06/11 05:04:31;;;;;;;2.43;2.00;;;16.90;99.90;;;;;;5009350;28;20214;-76
2022/06/11 05:06:57;;;;;;;3.37;2.33;;;16.90;99.90;;;;;;5009323;28;20734;-75
2022/06/11 05:09:26;;;;;;;2.53;1.60;;;16.90;99.90;;;;;;4993165;28;20216;-76
2022/06/11 05:11:53;;;;;;;1.70;1.53;;;16.90;99.90;;;;;;5009489;28;20633;-76
2022/06/11 05:14:22;;;;;;;3.50;2.00;;;17.00;99.90;;;;;;4992736;28;20323;-78
2022/06/11 05:16:49;;;;;;;2.30;2.00;;;17.10;99.90;;;;;;4994174;28;20191;-76
2022/06/11 05:19:19;;;;;;;2.67;1.80;;;17.20;99.90;;;;;;4993368;28;20221;-77
2022/06/11 05:21:50;;;;;;;2.30;1.90;;;17.30;99.90;;;;;;4993034;28;20676;-75
2022/06/11 05:24:19;;;;;;;2.53;2.00;;;17.30;99.90;;;;;;4994305;28;20193;-76
2022/06/11 05:26:50;;;;;;;2.10;1.90;;;17.40;99.90;;;;;;5009400;28;20193;-77
2022/06/11 05:29:27;;;;;;;2.90;1.80;;;17.40;99.90;;;;;;4993406;28;20195;-74
2022/06/11 05:31:54;;;;;;;2.37;1.80;;;17.50;99.90;;;;;;5009227;28;20201;-75
2022/06/11 05:34:26;;;;;;;3.17;1.90;;;17.50;99.90;;;;;;5008898;28;20262;-78
2022/06/11 05:36:53;;;;;;;2.23;2.00;;;17.60;99.90;;;;;;4992614;28;20192;-75
2022/06/11 05:39:20;;;;;;;4.17;1.90;;;17.70;99.90;;;;;;4992453;28;20631;-75
2022/06/11 05:41:48;;;;;;;3.37;2.03;;;17.80;99.90;;;;;;4992548;28;20245;-76
2022/06/11 05:44:15;;;;;;;2.67;2.03;;;17.80;99.90;;;;;;5008760;28;20329;-76
2022/06/11 05:46:42;;;;;;;3.10;2.10;;;17.80;99.90;;;;;;4992669;28;20259;-76
2022/06/11 05:49:16;;;;;;;4.73;1.90;;;17.90;99.90;;;;;;5009381;28;20196;-78
2022/06/11 05:51:47;;;;;;;2.23;1.83;;;18.00;99.90;;;;;;4992620;28;20201;-78
2022/06/11 05:54:18;;;;;;;2.30;1.90;;;18.00;99.90;;;;;;5008785;28;20264;-76
2022/06/11 05:56:46;;;;;;;2.83;2.20;;;18.00;99.90;;;;;;4993808;28;20279;-77
2022/06/11 05:59:18;;;;;;;3.53;2.20;;;18.10;99.90;;;;;;4993093;28;20511;-78
2022/06/11 06:01:48;;;;;;;3.13;2.10;;;18.00;99.90;;;;;;4993690;28;20247;-77
2022/06/11 06:04:15;;;;;;;3.73;2.00;;;18.00;99.90;;;;;;5008904;28;20192;-76
2022/06/11 06:06:43;;;;;;;3.07;2.10;;;18.10;99.90;;;;;;5008766;28;20200;-79
2022/06/11 06:09:10;;;;;;;3.57;2.20;;;18.20;99.90;;;;;;5008850;28;20207;-76
2022/06/11 06:11:37;;;;;;;2.70;1.90;;;18.40;99.90;;;;;;4993769;28;20189;-77
2022/06/11 06:14:04;;;;;;;2.80;1.83;;;18.40;99.90;;;;;;5008849;28;20553;-79
2022/06/11 06:16:31;;;;;;;3.57;2.00;;;18.50;99.90;;;;;;4993663;28;20319;-74
2022/06/11 06:19:00;;;;;;;3.07;2.10;;;18.50;99.90;;;;;;4993574;28;20192;-75
2022/06/11 06:21:31;;;;;;;3.50;2.07;;;18.60;99.90;;;;;;4992267;28;20254;-74
2022/06/11 06:23:58;;;;;;;4.17;1.60;;;18.60;99.90;;;;;;4992483;28;20597;-76
2022/06/11 06:26:25;;;;;;;1.87;1.53;;;18.70;99.90;;;;;;5008776;28;20197;-76
2022/06/11 06:28:52;;;;;;;3.37;1.77;;;18.60;99.90;;;;;;5008684;28;20225;-76
2022/06/11 06:31:20;;;;;;;3.17;1.80;;;18.70;99.90;;;;;;4994064;28;20283;-76
2022/06/11 06:33:47;;;;;;;2.87;2.13;;;18.80;99.90;;;;;;5012263;28;20228;-76
2022/06/11 06:36:15;;;;;;;3.80;2.10;;;18.90;99.90;;;;;;4995758;28;20564;-76
2022/06/11 06:38:43;;;;;;;3.30;1.70;;;19.00;99.90;;;;;;4997314;28;20196;-76
2022/06/11 06:41:13;;;;;;;2.50;1.90;;;19.10;99.90;;;;;;4996403;28;20568;-79
2022/06/11 06:43:42;;;;;;;2.53;2.10;;;19.20;99.90;;;;;;5012240;28;20229;-76
2022/06/11 06:46:10;;;;;;;2.63;1.87;;;19.20;99.90;;;;;;4996071;28;20212;-77
2022/06/11 06:48:38;;;;;;;4.63;2.13;;;19.30;99.90;;;;;;5012349;28;20201;-77
2022/06/11 06:51:05;;;;;;;2.57;2.07;;;19.30;99.90;;;;;;5012125;28;20651;-78
2022/06/11 06:53:32;;;;;;;4.63;2.20;;;19.20;99.90;;;;;;5012436;28;20203;-76
2022/06/11 06:55:59;;;;;;;4.23;2.10;;;19.30;99.90;;;;;;4996851;28;20221;-77
2022/06/11 06:58:26;;;;;;;3.37;2.20;;;19.40;99.90;;;;;;4999946;28;20288;-78
2022/06/11 07:00:56;;;;;;;2.37;1.90;;;19.50;99.90;;;;;;5012312;28;20193;-77
2022/06/11 07:03:23;;;;;;;3.03;1.90;;;19.50;99.90;;;;;;4995527;28;20204;-76
2022/06/11 07:05:51;;;;;;;3.77;2.13;;;19.60;99.90;;;;;;5011465;28;20228;-77
2022/06/11 07:08:18;;;;;;;3.83;2.00;;;19.80;99.90;;;;;;5012058;28;20193;-78
2022/06/11 07:10:51;;;;;;;3.13;1.90;;;20.00;99.90;;;;;;4996714;28;20193;-77
2022/06/11 07:13:21;;;;;;;2.30;1.93;;;20.20;99.90;;;;;;4995579;28;20283;-78
2022/06/11 07:15:52;;;;;;;4.23;2.10;;;20.20;99.90;;;;;;5011650;28;20213;-78
2022/06/11 07:18:30;;;;;;;4.20;2.30;;;20.10;99.90;;;;;;4995868;28;20562;-78
2022/06/11 07:21:04;;;;;;;3.10;2.10;;;19.90;99.90;;;;;;4999154;28;20228;-79
2022/06/11 07:23:38;;;;;;;3.20;2.37;;;19.90;99.90;;;;;;5011843;28;20661;-78
2022/06/11 07:26:11;;;;;;;3.33;2.40;;;20.00;99.90;;;;;;4995196;28;20205;-77
2022/06/11 07:28:43;;;;;;;3.87;2.60;;;19.80;99.90;;;;;;4998833;28;20208;-78
2022/06/11 07:31:10;;;;;;;3.93;2.47;;;20.00;99.90;;;;;;5014047;28;20190;-78
2022/06/11 07:34:22;;;;;;;3.30;2.50;;;20.20;99.90;;;;;;4996192;28;20724;-77
2022/06/11 07:36:49;;;;;;;3.07;2.60;;;20.20;99.90;;;;;;4974520;28;20206;-79
2022/06/11 07:39:16;;;;;;;3.40;2.30;;;20.10;99.90;;;;;;4974622;28;20280;-79
2022/06/11 07:41:44;;;;;;;4.80;2.40;;;20.10;99.90;;;;;;4958277;28;20198;-79
2022/06/11 07:44:11;;;;;;;3.47;2.40;;;20.30;99.90;;;;;;4973820;28;20236;-78
2022/06/11 07:46:39;;;;;;;6.30;2.03;;;20.50;99.90;;;;;;4958140;28;20206;-78
2022/06/11 07:49:06;;;;;;;2.93;1.90;;;20.80;99.90;;;;;;4958495;28;20209;-78
2022/06/11 07:51:33;;;;;;;3.40;2.00;;;20.80;99.90;;;;;;4958264;28;20198;-79
2022/06/11 07:54:00;;;;;;;3.97;2.10;;;21.00;99.90;;;;;;4958010;28;20205;-78
2022/06/11 07:56:48;;;;;;;2.30;2.10;;;21.10;99.90;;;;;;4973790;28;20321;-78
2022/06/11 07:59:15;;;;;;;3.97;2.37;;;21.00;99.90;;;;;;4973979;28;20205;-77
2022/06/11 08:01:45;;;;;;;4.57;2.10;;;21.30;99.90;;;;;;4957844;28;20300;-79
2022/06/11 08:04:12;;;;;;;2.63;2.03;;;21.50;99.90;;;;;;4957548;28;20201;-77
2022/06/11 08:06:40;;;;;;;3.80;2.43;;;21.20;99.90;;;;;;4961025;28;20251;-77
2022/06/11 08:09:07;;;;;;;3.67;2.07;;;21.20;99.90;;;;;;5010955;28;20207;-77
2022/06/11 08:11:34;;;;;;;5.13;2.50;;;21.40;99.90;;;;;;5010712;28;20205;-79
2022/06/11 08:14:07;;;;;;;3.50;2.00;;;21.30;99.90;;;;;;5010611;28;20223;-80
2022/06/11 08:16:45;;;;;;;3.67;2.20;;;21.30;99.90;;;;;;4981898;28;20692;-79
2022/06/11 08:19:12;;;;;;;2.97;2.10;;;21.60;99.90;;;;;;4994098;28;20193;-78
2022/06/11 08:21:40;;;;;;;2.60;2.07;;;21.70;99.90;;;;;;5011422;28;20197;-81
2022/06/11 08:24:10;;;;;;;3.60;2.10;;;21.70;99.90;;;;;;4994115;28;20200;-76
2022/06/11 08:26:46;;;;;;;2.40;2.20;;;22.30;99.90;;;;;;5010842;28;20196;-82
2022/06/11 08:29:17;;;;;;;2.90;2.07;;;22.80;99.90;;;;;;4994848;28;20657;-81
2022/06/11 08:31:44;;;;;;;3.45;2.10;;;24.10;99.90;;;;;;5010435;28;20189;-81
2022/06/11 08:34:12;;;;;;;3.30;2.15;;;25.00;99.90;;;;;;5007530;28;20276;-74
2022/06/11 08:36:57;;;;;;;4.40;2.28;;;25.80;99.90;;;;;;5005801;28;20209;-83
2022/06/11 08:39:25;;;;;;;3.75;2.40;;;26.10;99.90;;;;;;5027339;28;20205;-80
2022/06/11 08:41:59;;;;;;;2.70;2.17;;;26.40;99.90;;;;;;4980055;28;20391;-78
2022/06/11 08:44:48;;;;;;;4.22;2.00;;;26.60;99.90;;;;;;5012404;28;20260;-79
2022/06/11 08:47:17;;;;;;;3.75;2.22;;;27.10;99.90;;;;;;4998292;28;20227;-79
2022/06/11 08:49:47;;;;;;;3.35;1.80;;;27.40;97.70;;;;;;4992632;28;20204;-83
2022/06/11 08:52:32;;;;;;;2.00;1.60;;;26.80;96.50;;;;;;4994479;28;20197;-79
2022/06/11 08:55:21;;;;;;;2.05;1.80;;;27.20;95.50;;;;;;4984005;28;20278;-77
2022/06/11 08:58:09;;;;;;;2.00;1.80;;;27.60;93.00;;;;;;4992513;28;20296;-79
2022/06/11 09:00:47;;;;;;;5.00;1.90;;;28.30;91.00;;;;;;4992287;28;20537;-79
2022/06/11 09:03:25;;;;;;;4.07;1.90;;;28.00;86.90;;;;;;4993634;23;20673;-74
2022/06/11 09:06:37;;;;;;;2.50;1.80;;;26.70;91.20;;;;;;4973487;28;20292;-74
2022/06/11 09:09:25;;;;;;;1.60;1.50;;;27.40;90.60;;;;;;4973830;28;20600;-75
2022/06/11 09:12:09;;;;;;;1.73;1.40;;;27.80;87.50;;;;;;4989986;28;20243;-75
2022/06/11 09:14:44;;;;;;;2.72;1.48;;;28.10;85.70;;;;;;4993964;28;20279;-77
2022/06/11 09:17:17;;;;;;;3.75;1.40;;;27.60;83.00;;;;;;4993107;28;20196;-75
2022/06/11 09:20:09;;;;;;;1.70;1.40;;;28.20;82.00;;;;;;4992993;28;20225;-73
2022/06/11 09:23:07;;;;;;;5.70;1.83;;;28.40;79.60;;;;;;4994384;28;20197;-75
2022/06/11 09:25:49;;;;;;;2.58;1.60;;;28.90;77.50;;;;;;4993073;28;20299;-73
2022/06/11 09:28:37;;;;;;;3.75;1.67;;;28.90;76.00;;;;;;4994131;28;20197;-74
2022/06/11 09:31:25;;;;;;;3.25;1.75;;;28.80;80.60;;;;;;4992739;28;20679;-72
2022/06/11 09:34:11;;;;;;;3.60;1.70;;;28.40;80.80;;;;;;4993394;28;20201;-75
2022/06/11 09:36:49;;;;;;;1.90;1.70;;;28.40;77.10;;;;;;5012206;28;20238;-74
2022/06/11 09:39:33;;;;;;;2.72;1.55;;;27.80;75.60;;;;;;5012272;28;20231;-80
2022/06/11 09:42:18;;;;;;;4.55;1.80;;;28.10;78.30;;;;;;5012308;28;20235;-74
2022/06/11 09:44:59;;;;;;;2.53;1.60;;;28.40;77.70;;;;;;5011914;28;20258;-73
2022/06/11 09:47:39;;;;;;;2.88;1.40;;;28.80;75.60;;;;;;5013431;28;20634;-75
2022/06/11 09:50:42;;;;;;;1.50;1.40;;;28.80;74.30;;;;;;4995683;28;20200;-71
2022/06/11 09:53:28;;;;;;;1.92;1.55;;;29.30;71.60;;;;;;4956113;28;20235;-71
2022/06/11 09:56:17;;;;;;;1.67;1.58;;;29.20;69.60;;;;;;4955640;28;20225;-71
2022/06/11 09:59:14;;;;;;;2.47;1.48;;;29.20;70.50;;;;;;4972166;28;20228;-73
2022/06/11 10:05:25;;;;;;;1.58;1.40;;;29.70;65.70;;;;;;4879528;29;20687;-72
2022/06/11 10:08:05;;;;;;;6.07;1.80;;;28.80;68.40;;;;;;4880000;29;20223;-71
2022/06/11 10:10:37;;;;;;;1.90;1.50;;;28.70;68.00;;;;;;4895649;29;20200;-70
2022/06/11 10:13:14;;;;;;;3.42;1.50;;;28.00;69.80;;;;;;4880120;29;20235;-73
2022/06/11 10:15:46;;;;;;;2.38;1.40;;;28.50;69.30;;;;;;4895409;29;20749;-71
2022/06/11 10:18:43;;;;;;;2.10;1.30;;;29.10;69.40;;;;;;4880124;29;20251;-70
2022/06/11 10:21:19;;;;;;;1.58;1.17;;;29.20;63.60;;;;;;4842686;29;20210;-72
2022/06/11 10:23:53;;;;;;;1.92;1.40;;;28.80;62.60;;;;;;4843330;29;20224;-69
2022/06/11 10:26:44;;;;;;;2.33;1.42;;;28.90;64.30;;;;;;4842436;29;20225;-70
2022/06/11 10:29:13;;;;;;;2.05;1.40;;;29.40;66.00;;;;;;4842997;29;20292;-70
2022/06/11 10:31:45;;;;;;;2.00;1.20;;;29.60;63.50;;;;;;4842618;29;20217;-73
2022/06/11 10:34:18;;;;;;;1.95;1.27;;;29.80;62.10;;;;;;4842725;29;20369;-71
2022/06/11 10:37:29;;;;;;;1.42;1.00;;;30.40;61.30;;;;;;4858157;29;20707;-71
2022/06/11 10:40:18;;;;;;;1.88;1.13;;;30.60;58.00;;;;;;4842728;29;20201;-70
2022/06/11 10:43:01;;;;;;;1.35;1.00;;;31.00;57.70;;;;;;4950591;28;20201;-70
2022/06/11 10:45:29;;;;;;;1.27;1.13;;;30.60;55.70;;;;;;4955697;28;20804;-75
2022/06/11 10:47:59;;;;;;;4.47;1.10;;;29.90;55.30;;;;;;4971769;28;20206;-76
2022/06/11 10:50:29;;;;;;;2.72;1.10;;;30.00;57.50;;;;;;4955282;28;20198;-77
2022/06/11 10:53:27;;;;;;;1.23;1.00;;;30.60;56.40;;;;;;4955515;28;20201;-77
2022/06/11 10:56:03;;;;;;;2.22;1.17;;;31.10;54.30;;;;;;4952812;28;20690;-78
2022/06/11 10:58:38;;;;;;;1.50;0.90;;;31.20;54.20;;;;;;4988867;28;20192;-76
2022/06/11 11:01:14;;;;;;;1.83;1.00;;;31.60;53.40;;;;;;5011621;28;20658;-77
2022/06/11 11:04:06;;;;;;;0.90;0.90;;;31.90;52.40;;;;;;5011479;28;20318;-78
2022/06/11 11:06:36;;;;;;;1.27;0.90;;;31.70;48.50;;;;;;5011244;28;20650;-75
2022/06/11 11:09:13;;;;;;;1.17;0.98;;;31.60;49.30;;;;;;5011581;28;20220;-76
2022/06/11 11:11:56;;;;;;;1.73;1.00;;;31.90;49.50;;;;;;5011268;28;20299;-76
2022/06/11 11:14:42;;;;;;;1.65;1.00;;;31.50;50.10;;;;;;5011319;28;20287;-77
2022/06/11 11:17:22;;;;;;;1.60;1.00;;;31.60;52.00;;;;;;5011391;28;20649;-77
2022/06/11 11:22:41;;;;;;;1.20;1.10;;;32.50;51.50;;;;;;5015188;28;20267;-68
2022/06/11 11:25:17;;;;;;;1.15;1.00;;;32.60;48.50;;;;;;5014784;28;20227;-70
2022/06/11 11:27:47;;;;;;;2.33;1.05;;;32.70;48.20;;;;;;5014904;28;20230;-69
2022/06/11 11:30:14;;;;;;;1.73;1.23;;;32.90;48.70;;;;;;5014973;28;20644;-69
2022/06/11 11:32:46;;;;;;;1.58;1.20;;;33.20;49.20;;;;;;5016221;28;20227;-68
2022/06/11 11:35:27;;;;;;;2.70;1.40;;;32.60;51.00;;;;;;5014364;28;20220;-77
2022/06/11 11:38:15;;;;;;;3.38;1.40;;;33.30;50.70;;;;;;5014676;28;20210;-79
2022/06/11 11:40:55;;;;;;;1.73;1.17;;;33.50;49.50;;;;;;5014724;28;20200;-77
2022/06/11 11:43:24;;;;;;;1.17;0.90;;;33.00;48.50;;;;;;5014470;28;20230;-71
2022/06/11 11:46:00;;;;;;;0.85;0.85;;;33.10;47.00;;;;;;5014491;28;20250;-71
2022/06/11 11:48:37;;;;;;;1.35;1.02;;;33.20;46.30;;;;;;5014436;28;20196;-78
2022/06/11 11:51:12;;;;;;;1.25;1.10;;;33.20;46.60;;;;;;5014514;28;20196;-76
2022/06/11 11:53:44;;;;;;;1.90;1.48;;;33.30;47.20;;;;;;5014084;28;20748;-70
2022/06/11 11:56:49;;;;;;;2.75;1.15;;;32.80;48.20;;;;;;5014265;28;20224;-77
2022/06/11 11:59:21;;;;;;;1.73;1.33;;;32.70;49.30;;;;;;5014229;28;20585;-75
2022/06/11 12:01:50;;;;;;;3.30;1.67;;;33.10;50.40;;;;;;5014306;28;20211;-75
2022/06/11 12:04:35;;;;;;;2.40;1.40;;;33.50;49.60;;;;;;5013477;28;20266;-75
2022/06/11 12:07:05;;;;;;;2.00;1.40;;;33.40;50.10;;;;;;5014061;28;20561;-76
2022/06/11 12:09:39;;;;;;;1.50;1.40;;;33.90;49.70;;;;;;5014356;28;20561;-76
2022/06/11 12:12:09;;;;;;;1.42;1.30;;;34.00;49.20;;;;;;5013989;28;20217;-69
2022/06/11 12:14:40;;;;;;;2.25;1.50;;;33.10;46.00;;;;;;5013650;28;20321;-75
2022/06/11 12:17:29;;;;;;;1.75;1.20;;;33.20;48.10;;;;;;5013653;28;20252;-77
2022/06/11 12:20:01;;;;;;;2.10;1.25;;;33.70;49.60;;;;;;5014943;28;20185;-78
2022/06/11 12:22:36;;;;;;;2.03;1.40;;;33.90;48.60;;;;;;5013799;28;20669;-76
2022/06/11 12:25:23;;;;;;;2.20;1.40;;;33.00;47.10;;;;;;5014676;28;20212;-75
2022/06/11 12:27:51;;;;;;;3.05;1.25;;;33.60;48.90;;;;;;5013616;28;20238;-76
2022/06/11 12:30:25;;;;;;;1.75;1.40;;;33.70;49.00;;;;;;5013146;28;20355;-75
2022/06/11 12:32:53;;;;;;;2.47;1.40;;;33.20;48.30;;;;;;5013080;28;20206;-77
2022/06/11 12:35:46;;;;;;;2.35;1.27;;;32.80;47.60;;;;;;5012979;28;20323;-76
2022/06/11 12:38:22;;;;;;;1.70;1.30;;;32.90;49.20;;;;;;4973581;28;20202;-77
2022/06/11 12:41:11;;;;;;;2.60;1.50;;;32.50;51.30;;;;;;4973625;28;20236;-76
2022/06/11 12:44:02;;;;;;;1.83;1.40;;;32.40;50.60;;;;;;4973425;28;20695;-76
2022/06/11 12:46:42;;;;;;;3.63;1.40;;;32.20;50.00;;;;;;4957393;28;20222;-76
2022/06/11 12:49:23;;;;;;;2.08;1.23;;;32.70;50.30;;;;;;4973435;28;20205;-74
2022/06/11 12:52:11;;;;;;;1.83;1.40;;;32.40;50.30;;;;;;4973402;28;20254;-69
2022/06/11 12:54:45;;;;;;;2.67;1.42;;;32.50;51.90;;;;;;4956837;28;20194;-72
2022/06/11 12:57:23;;;;;;;1.75;1.27;;;32.70;52.00;;;;;;4973169;28;20279;-71
2022/06/11 13:00:11;;;;;;;2.72;1.40;;;33.30;51.00;;;;;;4973513;28;20640;-75
2022/06/11 13:03:09;;;;;;;1.90;1.33;;;33.90;50.40;;;;;;4956912;28;20237;-73
2022/06/11 13:05:54;;;;;;;3.25;1.50;;;33.90;50.80;;;;;;4972806;28;20229;-73
2022/06/11 13:08:35;;;;;;;2.40;1.60;;;34.00;50.20;;;;;;4972884;28;20236;-74
2022/06/11 13:11:32;;;;;;;1.85;1.42;;;33.90;50.60;;;;;;4973189;28;20296;-75
2022/06/11 13:14:01;;;;;;;2.08;1.50;;;33.90;52.20;;;;;;4956695;28;20583;-76
2022/06/11 13:16:37;;;;;;;2.00;1.33;;;33.90;49.70;;;;;;5012681;28;20310;-75
2022/06/11 13:19:21;;;;;;;1.30;1.20;;;34.00;50.80;;;;;;5012727;28;20298;-75
2022/06/11 13:22:19;;;;;;;1.98;1.30;;;34.60;49.20;;;;;;5013786;28;20219;-76
2022/06/11 13:25:22;;;;;;;1.58;1.40;;;35.00;47.40;;;;;;5012782;28;20204;-76
2022/06/11 13:28:07;;;;;;;2.78;1.65;;;35.30;47.80;;;;;;5012554;28;20207;-76
2022/06/11 13:31:09;;;;;;;1.77;1.40;;;34.00;48.80;;;;;;5012486;28;20234;-76
2022/06/11 13:33:48;;;;;;;2.47;1.30;;;34.00;49.70;;;;;;5014145;28;20258;-76